createdAt,value
2018-06-21T00:01:16.956Z,148829.63
2018-06-21T00:03:48.632Z,148873.28
2018-06-21T00:06:19.792Z,148959.31
2018-06-21T00:08:50.787Z,148979.31
2018-06-21T00:11:22.506Z,149036.67
2018-06-21T00:13:53.494Z,149069.12
2018-06-21T00:16:24.675Z,149135.27
2018-06-21T00:53:21.314Z,149230.11
2018-06-21T00:56:02.645Z,149250.09
2018-06-21T00:58:34.653Z,149220.13
2018-06-21T01:01:05.772Z,149236.34
2018-06-21T01:03:37.224Z,149253.84
2018-06-21T01:06:08.309Z,149283.77
2018-06-21T01:08:39.698Z,149313.78
2018-06-21T01:11:10.939Z,149336.23
2018-06-21T01:13:43.488Z,149331.25
2018-06-21T01:16:14.649Z,149343.77
2018-06-21T01:18:45.702Z,149347.52
2018-06-21T01:21:17.777Z,149331.25
2018-06-21T01:23:48.993Z,149328.75
2018-06-21T01:26:20.419Z,149318.78
2018-06-21T01:28:51.859Z,149356.25
2018-06-21T01:31:22.699Z,149345.02
2018-06-21T01:33:53.954Z,149306.27
2018-06-21T01:36:25.060Z,149313.78
2018-06-21T01:38:56.250Z,149325.02
2018-06-21T01:41:27.252Z,149353.75
2018-06-21T01:43:58.400Z,149341.28
2018-06-21T01:46:29.528Z,149323.77
2018-06-21T01:49:00.749Z,149331.25
2018-06-21T01:51:31.816Z,149359.98
2018-06-21T01:54:03.080Z,149396.20
2018-06-21T01:56:34.154Z,149447.39
2018-06-21T01:59:06.417Z,149454.88
2018-06-21T02:01:37.542Z,149433.63
2018-06-21T02:04:08.913Z,149447.39
2018-06-21T02:06:40.102Z,149408.67
2018-06-21T02:09:11.319Z,149394.95
2018-06-21T02:11:42.218Z,149409.92
2018-06-21T02:14:13.367Z,149431.13
2018-06-21T02:16:44.595Z,149461.13
2018-06-21T02:19:15.728Z,149457.37
2018-06-21T02:21:46.738Z,149461.13
2018-06-21T02:24:17.938Z,149474.84
2018-06-21T02:26:48.884Z,149504.87
2018-06-21T02:29:20.024Z,149489.86
2018-06-21T02:31:51.166Z,149459.88
2018-06-21T02:34:22.040Z,149474.84
2018-06-21T02:36:53.361Z,149486.12
2018-06-21T02:39:24.493Z,149472.34
2018-06-21T02:41:55.556Z,149478.58
2018-06-21T02:44:27.181Z,149488.61
2018-06-21T02:46:58.473Z,149488.61
2018-06-21T02:49:29.760Z,149508.63
2018-06-21T02:52:01.159Z,149526.09
2018-06-21T02:54:32.458Z,149534.88
2018-06-21T02:57:03.550Z,149546.11
2018-06-21T02:59:34.537Z,149576.06
2018-06-21T03:02:05.613Z,149612.30
2018-06-21T03:04:37.308Z,149638.55
2018-06-21T03:07:08.658Z,149713.55
2018-06-21T03:09:39.952Z,149899.84
2018-06-21T03:12:15.781Z,150051.20
2018-06-21T03:14:46.909Z,150200.16
2018-06-21T03:17:18.044Z,150326.53
2018-06-21T03:19:49.840Z,150459.28
2018-06-21T03:22:20.768Z,150588.34
2018-06-21T03:24:52.043Z,150667.28
2018-06-21T03:27:23.231Z,150781.31
2018-06-21T03:29:54.517Z,150890.39
2018-06-21T03:32:25.874Z,151063.47
2018-06-21T03:34:57.067Z,151053.44
2018-06-21T03:37:28.037Z,151202.73
2018-06-21T03:40:00.651Z,151195.22
2018-06-21T03:42:32.165Z,151227.84
2018-06-21T03:45:03.217Z,151273.02
2018-06-21T03:47:34.348Z,151349.56
2018-06-21T03:50:05.639Z,151393.55
2018-06-21T03:52:36.853Z,151462.55
2018-06-21T03:55:08.011Z,151558.00
2018-06-21T03:57:38.881Z,151492.69
2018-06-21T04:00:10.023Z,151555.50
2018-06-21T04:02:41.126Z,151761.47
2018-06-21T04:05:12.046Z,151801.72
2018-06-21T04:07:43.307Z,151899.75
2018-06-21T04:10:14.591Z,151972.66
2018-06-21T04:12:45.857Z,151951.28
2018-06-21T04:15:17.092Z,152102.17
2018-06-21T04:17:48.066Z,152141.11
2018-06-21T04:20:19.765Z,151902.27
2018-06-21T04:22:50.875Z,152204.05
2018-06-21T04:25:22.193Z,152100.92
2018-06-21T04:27:54.136Z,152055.67
2018-06-21T04:30:25.465Z,152248.06
2018-06-21T04:32:56.470Z,152229.17
2018-06-21T04:35:27.566Z,152292.13
2018-06-21T04:37:58.732Z,152235.45
2018-06-21T04:40:30.080Z,152024.19
2018-06-21T04:43:01.289Z,152112.22
2018-06-21T04:45:32.559Z,152277.00
2018-06-21T04:48:03.554Z,152404.09
2018-06-21T04:50:35.353Z,152365.05
2018-06-21T04:53:07.208Z,152755.30
2018-06-21T04:55:38.406Z,153139.52
2018-06-21T04:58:09.082Z,153160.97
2018-06-21T05:00:40.212Z,153356.38
2018-06-21T05:03:11.239Z,153645.17
2018-06-21T05:05:42.552Z,153275.66
2018-06-21T05:08:14.939Z,153665.38
2018-06-21T05:10:46.029Z,153515.23
2018-06-21T05:13:17.074Z,153343.78
2018-06-21T05:15:48.204Z,153439.63
2018-06-21T05:18:19.319Z,153733.50
2018-06-21T05:20:50.476Z,153975.87
2018-06-21T05:23:22.180Z,153887.50
2018-06-21T05:25:53.622Z,153838.25
2018-06-21T05:28:24.702Z,153657.81
2018-06-21T05:30:56.010Z,153693.14
2018-06-21T05:33:27.276Z,153791.56
2018-06-21T05:35:58.477Z,153787.78
2018-06-21T05:38:29.755Z,153515.23
2018-06-21T05:41:01.612Z,153623.70
2018-06-21T05:43:33.209Z,153558.16
2018-06-21T05:46:04.506Z,153818.08
2018-06-21T05:48:36.399Z,153695.66
2018-06-21T05:51:07.723Z,153748.63
2018-06-21T05:53:38.697Z,153409.31
2018-06-21T05:56:09.980Z,153771.41
2018-06-21T05:58:41.374Z,153493.83
2018-06-21T06:01:12.480Z,153646.47
2018-06-21T06:03:43.927Z,153874.89
2018-06-21T06:06:14.901Z,153806.69
2018-06-21T06:08:46.091Z,153988.47
2018-06-21T06:11:17.177Z,154817.27
2018-06-21T06:13:48.126Z,154952.61
2018-06-21T06:16:19.960Z,155167.66
2018-06-21T06:18:51.116Z,154846.36
2018-06-21T06:21:22.561Z,154963.97
2018-06-21T06:23:53.912Z,155260.03
2018-06-21T06:26:25.085Z,155523.25
2018-06-21T06:28:56.069Z,155641.00
2018-06-21T06:31:27.144Z,155199.23
2018-06-21T06:33:58.308Z,155381.47
2018-06-21T06:36:29.509Z,154688.36
2018-06-21T06:39:18.033Z,154934.87
2018-06-21T06:41:51.013Z,155504.28
2018-06-21T06:44:22.178Z,155766.31
2018-06-21T06:46:53.285Z,155689.14
2018-06-21T06:49:24.290Z,155809.41
2018-06-21T06:51:55.315Z,155862.61
2018-06-21T06:54:26.849Z,155830.89
2018-06-21T06:56:58.933Z,155910.72
2018-06-21T06:59:30.060Z,155661.23
2018-06-21T07:02:02.319Z,155870.19
2018-06-21T07:04:33.554Z,155738.50
2018-06-21T07:07:04.701Z,155634.62
2018-06-21T07:09:35.585Z,155733.39
2018-06-21T07:12:06.577Z,155939.84
2018-06-21T07:14:37.712Z,156094.41
2018-06-21T07:17:09.945Z,156062.73
2018-06-21T07:19:41.311Z,155936.05
2018-06-21T07:22:12.571Z,155999.39
2018-06-21T07:24:43.575Z,155856.23
2018-06-21T07:27:14.775Z,155920.83
2018-06-21T07:29:45.748Z,156126.12
2018-06-21T07:32:16.764Z,155852.44
2018-06-21T07:34:47.985Z,155418.22
2018-06-21T07:37:19.125Z,154921.00
2018-06-21T07:39:51.022Z,154989.28
2018-06-21T07:42:22.045Z,154550.56
2018-06-21T07:44:53.336Z,153991.00
2018-06-21T07:47:24.543Z,153371.48
2018-06-21T07:49:55.508Z,153572.00
2018-06-21T07:52:26.717Z,153434.59
2018-06-21T07:54:57.951Z,153405.53
2018-06-21T07:57:29.152Z,152443.09
2018-06-21T08:00:00.391Z,152388.97
2018-06-21T08:02:31.586Z,152805.64
2018-06-21T08:05:03.400Z,152998.39
2018-06-21T08:07:34.661Z,152912.75
2018-06-21T08:10:05.714Z,152440.58
2018-06-21T08:12:36.925Z,152538.75
2018-06-21T08:15:07.777Z,152450.64
2018-06-21T08:17:39.077Z,152283.28
2018-06-21T08:20:10.101Z,152123.53
2018-06-21T08:22:41.384Z,151840.67
2018-06-21T08:25:12.894Z,151640.94
2018-06-21T08:27:44.156Z,151512.81
2018-06-21T08:30:15.129Z,151475.09
2018-06-21T08:32:46.341Z,151514.06
2018-06-21T08:35:17.674Z,151574.36
2018-06-21T08:37:50.365Z,151558.00
2018-06-21T08:40:21.284Z,151531.66
2018-06-21T08:42:52.251Z,151462.55
2018-06-21T08:45:23.360Z,151517.83
2018-06-21T08:47:54.340Z,151505.28
2018-06-21T08:50:25.653Z,151402.31
2018-06-21T08:52:56.928Z,151446.25
2018-06-21T08:55:28.139Z,151441.23
2018-06-21T08:57:59.249Z,151441.23
2018-06-21T09:00:30.375Z,151482.66
2018-06-21T09:03:01.443Z,151547.97
2018-06-21T09:05:32.544Z,151540.44
2018-06-21T09:08:03.573Z,151569.28
2018-06-21T09:10:34.638Z,151593.17
2018-06-21T09:13:05.822Z,151540.44
2018-06-21T09:15:36.906Z,151570.55
2018-06-21T09:18:08.578Z,151613.23
2018-06-21T09:20:39.929Z,151517.83
2018-06-21T09:23:11.325Z,151530.41
2018-06-21T09:25:42.573Z,151472.58
2018-06-21T09:28:13.899Z,151423.63
2018-06-21T09:30:44.920Z,151482.66
2018-06-21T09:33:16.250Z,151476.34
2018-06-21T09:35:47.463Z,151460.05
2018-06-21T09:38:23.338Z,151455.03
2018-06-21T09:40:59.177Z,151496.45
2018-06-21T09:43:34.829Z,151468.81
2018-06-21T09:46:10.934Z,151374.69
2018-06-21T09:48:45.954Z,151413.59
2018-06-21T09:51:16.922Z,151379.70
2018-06-21T09:53:47.775Z,151268.00
2018-06-21T09:56:19.445Z,151325.70
2018-06-21T09:58:51.532Z,151331.97
2018-06-21T10:01:22.554Z,151343.30
2018-06-21T10:03:53.697Z,151358.34
2018-06-21T10:06:24.801Z,151380.95
2018-06-21T10:08:56.138Z,151412.34
2018-06-21T10:11:27.287Z,151414.86
2018-06-21T10:13:58.837Z,151409.84
2018-06-21T10:16:29.820Z,151382.27
2018-06-21T10:19:01.261Z,151402.31
2018-06-21T10:21:32.412Z,151347.06
2018-06-21T10:24:04.445Z,151301.89
2018-06-21T10:26:35.728Z,151311.91
2018-06-21T10:29:07.010Z,151349.56
2018-06-21T10:31:38.935Z,151386.02
2018-06-21T10:34:10.159Z,151343.30
2018-06-21T10:36:41.430Z,151344.56
2018-06-21T10:39:13.340Z,151330.72
2018-06-21T10:41:44.444Z,151299.38
2018-06-21T10:44:16.035Z,151256.72
2018-06-21T10:46:47.290Z,151284.30
2018-06-21T10:49:18.701Z,151226.55
2018-06-21T10:51:49.758Z,151188.91
2018-06-21T10:54:21.201Z,151246.69
2018-06-21T10:56:52.442Z,151221.53
2018-06-21T10:59:23.586Z,151188.91
2018-06-21T11:01:54.666Z,151192.70
2018-06-21T11:04:25.679Z,151254.22
2018-06-21T11:06:56.574Z,151251.70
2018-06-21T11:09:28.313Z,151211.50
2018-06-21T11:11:59.446Z,151206.50
2018-06-21T11:14:30.578Z,151219.03
2018-06-21T11:17:01.906Z,151219.03
2018-06-21T11:19:33.186Z,151193.97
2018-06-21T11:22:04.194Z,151205.25
2018-06-21T11:24:35.229Z,151224.03
2018-06-21T11:27:07.194Z,151151.31
2018-06-21T11:29:38.893Z,151035.86
2018-06-21T11:32:11.015Z,150999.48
2018-06-21T11:34:42.402Z,151013.31
2018-06-21T11:37:14.389Z,151035.86
2018-06-21T11:39:45.829Z,151094.83
2018-06-21T11:42:16.910Z,151094.83
2018-06-21T11:44:47.904Z,151020.83
2018-06-21T11:47:18.971Z,150993.22
2018-06-21T11:49:50.265Z,150945.59
2018-06-21T11:52:21.632Z,150953.09
2018-06-21T11:54:52.905Z,150943.08
2018-06-21T11:57:23.912Z,150889.13
2018-06-21T11:59:55.096Z,150907.97
2018-06-21T12:02:26.468Z,150919.23
2018-06-21T12:04:57.886Z,150891.64
2018-06-21T12:07:28.955Z,150875.36
2018-06-21T12:10:00.240Z,150944.33
2018-06-21T12:12:31.503Z,150835.25
2018-06-21T12:15:02.629Z,150780.06
2018-06-21T12:17:33.826Z,150825.23
2018-06-21T12:20:04.842Z,150862.84
2018-06-21T12:22:35.984Z,150850.28
2018-06-21T12:25:07.668Z,150889.13
2018-06-21T12:27:38.729Z,150770.05
2018-06-21T12:30:10.002Z,150762.50
2018-06-21T12:32:41.031Z,150816.47
2018-06-21T12:35:12.250Z,150744.97
2018-06-21T12:37:43.361Z,150795.14
2018-06-21T12:40:14.429Z,150849.02
2018-06-21T12:42:45.646Z,150840.25
2018-06-21T12:45:17.038Z,150776.31
2018-06-21T12:47:48.132Z,150759.98
2018-06-21T12:50:19.346Z,150762.50
2018-06-21T12:52:50.692Z,150727.44
2018-06-21T12:55:22.137Z,150775.06
2018-06-21T12:57:53.370Z,150762.50
2018-06-21T13:00:24.597Z,150761.23
2018-06-21T13:02:56.875Z,150667.28
2018-06-21T13:05:28.123Z,150674.83
2018-06-21T13:07:59.753Z,150699.86
2018-06-21T13:10:41.341Z,150759.98
2018-06-21T13:13:30.008Z,150792.59
2018-06-21T13:16:00.854Z,150847.77
2018-06-21T13:18:32.076Z,150839.00
2018-06-21T13:21:03.105Z,150872.86
2018-06-21T13:23:34.199Z,150865.34
2018-06-21T13:26:05.536Z,150772.56
2018-06-21T13:28:37.824Z,150786.33
2018-06-21T13:31:09.791Z,150844.02
2018-06-21T13:33:40.797Z,150867.84
2018-06-21T13:36:12.097Z,150810.16
2018-06-21T13:38:44.227Z,150704.86
2018-06-21T13:41:15.451Z,150674.83
2018-06-21T13:43:46.532Z,150743.72
2018-06-21T13:46:17.896Z,150785.08
2018-06-21T13:48:50.026Z,150756.23
2018-06-21T13:51:21.310Z,150722.44
2018-06-21T13:53:52.522Z,150791.33
2018-06-21T13:56:23.750Z,150728.69
2018-06-21T13:58:56.990Z,150754.98
2018-06-21T14:01:28.337Z,150696.11
2018-06-21T14:03:59.446Z,150742.47
2018-06-21T14:06:30.617Z,150763.80
2018-06-21T14:09:01.733Z,150754.98
2018-06-21T14:11:33.126Z,150729.95
2018-06-21T14:14:04.321Z,150664.77
2018-06-21T14:16:37.700Z,150638.44
2018-06-21T14:19:14.016Z,150587.09
2018-06-21T14:21:45.386Z,150602.09
2018-06-21T14:24:16.734Z,150622.17
2018-06-21T14:26:47.964Z,150618.38
2018-06-21T14:29:18.976Z,150469.30
2018-06-21T14:31:50.074Z,150435.53
2018-06-21T14:34:21.173Z,150381.66
2018-06-21T14:36:53.495Z,150406.72
2018-06-21T14:39:35.020Z,150375.39
2018-06-21T14:42:12.110Z,150456.78
2018-06-21T14:44:43.327Z,150496.91
2018-06-21T14:47:14.906Z,150539.50
2018-06-21T14:49:46.284Z,150594.59
2018-06-21T14:52:17.666Z,150589.59
2018-06-21T14:54:49.641Z,150568.28
2018-06-21T14:57:21.559Z,150559.52
2018-06-21T14:59:52.893Z,150559.52
2018-06-21T15:02:23.984Z,150575.83
2018-06-21T15:04:54.960Z,150589.59
2018-06-21T15:07:26.235Z,150564.52
2018-06-21T15:09:57.417Z,150662.27
2018-06-21T15:12:28.463Z,150677.34
2018-06-21T15:14:59.733Z,150731.20
2018-06-21T15:17:31.247Z,150733.70
2018-06-21T15:20:02.466Z,150782.56
2018-06-21T15:22:33.845Z,150811.47
2018-06-21T15:25:04.752Z,150697.36
2018-06-21T15:27:35.914Z,150714.87
2018-06-21T15:30:06.887Z,150672.33
2018-06-21T15:32:38.289Z,150599.59
2018-06-21T15:35:09.215Z,150617.13
2018-06-21T15:37:40.489Z,150642.19
2018-06-21T15:40:16.109Z,150625.94
2018-06-21T15:42:48.120Z,150624.67
2018-06-21T15:45:19.647Z,150635.94
2018-06-21T15:47:50.912Z,150658.52
2018-06-21T15:50:21.995Z,150597.09
2018-06-21T15:52:54.057Z,150640.94
2018-06-21T15:55:25.167Z,150672.33
2018-06-21T15:57:56.437Z,150629.69
2018-06-21T16:00:27.499Z,150612.11
2018-06-21T16:02:58.505Z,150629.69
2018-06-21T16:05:30.174Z,150639.69
2018-06-21T16:08:01.326Z,150612.11
2018-06-21T16:10:33.247Z,150618.38
2018-06-21T16:13:04.551Z,150579.58
2018-06-21T16:15:38.851Z,150569.53
2018-06-21T16:18:10.315Z,150534.50
2018-06-21T16:20:41.808Z,150506.92
2018-06-21T16:23:13.501Z,150416.72
2018-06-21T16:25:44.453Z,150385.45
2018-06-21T16:28:15.999Z,150410.47
2018-06-21T16:30:47.195Z,150415.47
2018-06-21T16:33:18.295Z,150399.20
2018-06-21T16:35:49.461Z,150384.20
2018-06-21T16:38:20.719Z,150386.70
2018-06-21T16:40:51.831Z,150334.03
2018-06-21T16:43:22.973Z,150335.28
2018-06-21T16:45:53.972Z,150321.53
2018-06-21T16:48:25.309Z,150370.39
2018-06-21T16:50:56.366Z,150365.39
2018-06-21T16:53:27.665Z,150309.03
2018-06-21T16:55:58.860Z,150268.97
2018-06-21T16:58:30.039Z,150276.47
2018-06-21T17:01:01.303Z,150251.47
2018-06-21T17:03:33.873Z,150261.47
2018-06-21T17:06:05.068Z,150261.47
2018-06-21T17:08:35.899Z,150258.97
2018-06-21T17:11:07.267Z,150237.67
2018-06-21T17:13:38.351Z,150231.42
2018-06-21T17:16:09.534Z,150213.91
2018-06-21T17:18:41.647Z,150286.47
2018-06-21T17:21:12.774Z,150231.42
2018-06-21T17:23:44.169Z,150212.66
2018-06-21T17:26:15.268Z,150212.66
2018-06-21T17:28:46.442Z,150195.16
2018-06-21T17:31:17.921Z,150162.56
2018-06-21T17:33:49.403Z,150143.78
2018-06-21T17:36:20.565Z,150111.28
2018-06-21T17:38:51.877Z,150098.78
2018-06-21T17:41:23.939Z,150081.25
2018-06-21T17:43:55.208Z,150106.28
2018-06-21T17:46:26.411Z,150101.28
2018-06-21T17:48:58.516Z,150106.28
2018-06-21T17:51:29.887Z,150101.28
2018-06-21T17:54:01.281Z,150072.50
2018-06-21T17:56:32.571Z,150042.45
2018-06-21T17:59:03.675Z,150049.95
2018-06-21T18:01:34.637Z,150041.20
2018-06-21T18:04:05.723Z,150052.50
2018-06-21T18:06:36.695Z,150057.50
2018-06-21T18:09:09.244Z,150049.95
2018-06-21T18:11:40.220Z,150032.45
2018-06-21T18:14:11.325Z,149953.61
2018-06-21T18:16:42.765Z,149938.63
2018-06-21T18:19:18.547Z,149938.63
2018-06-21T18:22:06.133Z,149929.88
2018-06-21T18:24:56.039Z,149912.39
2018-06-21T18:27:40.430Z,149911.13
2018-06-21T18:30:17.869Z,149918.63
2018-06-21T18:32:52.713Z,149868.63
2018-06-21T18:35:28.883Z,149868.63
2018-06-21T18:38:03.484Z,149868.63
2018-06-21T18:40:38.429Z,149871.13
2018-06-21T18:43:10.756Z,149881.11
2018-06-21T18:47:11.141Z,149871.13
2018-06-21T18:49:42.580Z,149858.58
2018-06-21T18:52:13.857Z,149822.31
2018-06-21T18:54:45.201Z,149826.06
2018-06-21T18:57:16.588Z,149791.06
2018-06-21T18:59:47.622Z,149746.06
2018-06-21T19:02:18.823Z,149743.56
2018-06-21T19:04:49.908Z,149721.08
2018-06-21T19:07:26.196Z,149731.08
2018-06-21T19:10:02.308Z,149734.81
2018-06-21T19:12:33.411Z,149731.08
2018-06-21T19:15:04.917Z,149716.05
2018-06-21T19:17:36.522Z,149686.08
2018-06-21T19:20:07.512Z,149709.80
2018-06-21T19:22:38.659Z,149707.31
2018-06-21T19:25:09.624Z,149691.08
2018-06-21T19:27:41.192Z,149711.05
2018-06-21T19:30:12.129Z,149697.31
2018-06-21T19:32:43.113Z,149701.06
2018-06-21T19:35:14.278Z,149692.33
2018-06-21T19:37:45.626Z,149693.58
2018-06-21T19:40:16.719Z,149673.59
2018-06-21T19:42:47.706Z,149687.33
2018-06-21T19:45:19.449Z,149674.84
2018-06-21T19:47:50.682Z,149699.81
2018-06-21T19:50:21.748Z,149698.56
2018-06-21T19:52:52.839Z,149717.30
2018-06-21T19:55:24.904Z,149713.55
2018-06-21T19:57:55.747Z,149683.59
2018-06-21T20:00:26.885Z,149687.33
2018-06-21T20:03:00.930Z,149669.81
2018-06-21T20:05:31.972Z,149667.27
2018-06-21T20:08:03.249Z,149639.80
2018-06-21T20:10:34.252Z,149667.27
2018-06-21T20:13:05.611Z,149661.03
2018-06-21T20:15:54.432Z,149687.33
2018-06-21T20:18:26.554Z,149663.52
2018-06-21T20:21:01.014Z,149666.02
2018-06-21T20:23:32.448Z,149663.52
2018-06-21T20:26:03.832Z,149654.78
2018-06-21T20:28:37.450Z,149661.03
2018-06-21T20:31:09.877Z,149677.34
2018-06-21T20:33:42.631Z,149687.33
2018-06-21T20:36:15.019Z,149669.81
2018-06-21T20:38:46.614Z,149698.56
2018-06-21T20:41:18.024Z,149684.83
2018-06-21T20:43:49.748Z,149661.03
2018-06-21T20:46:22.029Z,149674.84
2018-06-21T20:48:53.245Z,149681.09
2018-06-21T20:51:24.726Z,149673.59
2018-06-21T20:53:56.331Z,149706.06
2018-06-21T20:56:27.661Z,149703.56
2018-06-21T20:58:59.164Z,149684.83
2018-06-21T21:01:30.421Z,149674.84
2018-06-21T21:04:01.891Z,149661.03
2018-06-21T21:06:33.357Z,149662.27
2018-06-21T21:09:08.138Z,149629.81
2018-06-21T21:11:40.661Z,149646.05
2018-06-21T21:14:27.612Z,149624.83
2018-06-21T21:17:01.677Z,149598.56
2018-06-21T21:19:32.793Z,149604.81
2018-06-21T21:22:04.095Z,149609.80
2018-06-21T21:24:35.410Z,149621.03
2018-06-21T21:27:07.735Z,149633.56
2018-06-21T21:29:40.103Z,149628.56
2018-06-21T21:32:13.794Z,149628.56
2018-06-21T21:34:45.953Z,149631.06
2018-06-21T21:37:17.097Z,149618.53
2018-06-21T21:39:48.327Z,149618.53
2018-06-21T21:42:20.386Z,149618.53
2018-06-21T21:44:51.209Z,149608.55
2018-06-21T21:47:24.043Z,149599.81
2018-06-21T21:50:06.181Z,149619.78
2018-06-21T21:52:37.407Z,149618.53
2018-06-21T21:55:08.752Z,149614.80
2018-06-21T21:57:39.743Z,149613.55
2018-06-21T22:00:48.547Z,149613.55
2018-06-21T22:03:19.806Z,149476.09
2018-06-21T22:05:50.705Z,149566.06
2018-06-21T22:08:22.816Z,149546.11
2018-06-21T22:10:54.836Z,149551.09
2018-06-21T22:13:26.014Z,149544.86
2018-06-21T22:15:58.502Z,149537.38
2018-06-21T22:18:30.295Z,149523.59
2018-06-21T22:21:01.258Z,149521.11
2018-06-21T22:23:32.597Z,149508.63
2018-06-21T22:26:03.851Z,149484.87
2018-06-21T22:28:35.800Z,149488.61
2018-06-21T22:31:07.641Z,149463.61
2018-06-21T22:33:38.754Z,149469.84
2018-06-21T22:36:10.947Z,149463.61
2018-06-21T22:38:42.323Z,149464.86
2018-06-21T22:41:14.931Z,149448.64
2018-06-21T22:43:48.051Z,149449.89
2018-06-21T22:46:21.311Z,149454.88
2018-06-21T22:48:52.586Z,149439.91
2018-06-21T22:51:23.561Z,149432.38
2018-06-21T22:53:55.852Z,149442.41
2018-06-21T22:56:28.765Z,149433.63
2018-06-21T22:59:01.209Z,149463.61
2018-06-21T23:01:33.979Z,149432.38
2018-06-21T23:04:05.130Z,149421.16
2018-06-21T23:06:36.696Z,149436.17
2018-06-21T23:09:09.510Z,149426.14
2018-06-21T23:11:42.907Z,149413.66
2018-06-21T23:14:14.352Z,149412.42
2018-06-21T23:16:47.433Z,149399.94
2018-06-21T23:19:30.437Z,149394.95
2018-06-21T23:22:02.799Z,149412.42
2018-06-21T23:24:33.924Z,149388.72
2018-06-21T23:27:06.482Z,149357.48
2018-06-21T23:29:37.478Z,149398.69
2018-06-21T23:32:09.494Z,149391.22
2018-06-21T23:34:43.340Z,149413.66
2018-06-21T23:37:16.898Z,149428.64
2018-06-21T23:39:48.011Z,149412.42
2018-06-21T23:42:19.491Z,149424.89
2018-06-21T23:44:50.615Z,149424.89
2018-06-21T23:47:22.026Z,149397.45
2018-06-21T23:49:53.110Z,149363.72
2018-06-21T23:52:24.595Z,149343.77
2018-06-21T23:54:55.902Z,149333.75
2018-06-21T23:57:27.950Z,149343.77
2018-06-21T23:59:59.966Z,149364.97
